createdAt,value
2022-10-12T00:01:50.921Z,8.45
2022-10-12T00:06:52.379Z,8.22
2022-10-12T00:11:53.780Z,8.20
2022-10-12T00:16:55.243Z,7.98
2022-10-12T00:21:56.648Z,8.06
2022-10-12T00:26:58.189Z,7.97
2022-10-12T00:31:59.618Z,8.00
2022-10-12T00:37:01.188Z,7.88
2022-10-12T00:42:02.955Z,8.08
2022-10-12T00:47:10.483Z,7.96
2022-10-12T00:52:15.572Z,8.02
2022-10-12T00:57:18.940Z,8.02
2022-10-12T01:02:22.212Z,8.04
2022-10-12T01:07:23.665Z,7.94
2022-10-12T01:12:26.662Z,7.94
2022-10-12T01:17:46.546Z,7.91
2022-10-12T01:23:06.564Z,7.73
2022-10-12T01:28:29.575Z,7.79
2022-10-12T01:33:45.493Z,7.88
2022-10-12T01:38:55.932Z,7.86
2022-10-12T01:43:57.352Z,7.87
2022-10-12T01:49:01.180Z,7.90
2022-10-12T01:54:19.772Z,7.84
2022-10-12T01:59:38.890Z,7.87
2022-10-12T02:04:58.284Z,7.97
2022-10-12T02:10:02.826Z,7.90
2022-10-12T02:15:08.245Z,7.77
2022-10-12T02:20:12.847Z,7.72
2022-10-12T02:25:18.271Z,7.84
2022-10-12T02:30:21.319Z,7.81
2022-10-12T02:35:38.528Z,7.68
2022-10-12T02:41:00.902Z,7.80
2022-10-12T02:46:05.982Z,7.76
2022-10-12T02:51:10.310Z,7.77
2022-10-12T02:56:14.113Z,7.70
2022-10-12T03:01:19.663Z,7.71
2022-10-12T03:06:21.392Z,7.75
2022-10-12T03:11:23.735Z,7.49
2022-10-12T03:16:25.331Z,7.58
2022-10-12T03:21:26.709Z,7.54
2022-10-12T03:26:28.107Z,7.52
2022-10-12T03:31:29.591Z,7.46
2022-10-12T03:36:31.307Z,7.18
2022-10-12T03:41:32.695Z,7.20
2022-10-12T03:46:34.078Z,7.27
2022-10-12T03:51:35.534Z,7.35
2022-10-12T03:56:37.206Z,7.37
2022-10-12T04:01:38.639Z,7.47
2022-10-12T04:06:40.081Z,7.31
2022-10-12T04:11:41.473Z,7.39
2022-10-12T04:16:42.868Z,7.12
2022-10-12T04:21:44.232Z,7.29
2022-10-12T04:26:45.670Z,7.14
2022-10-12T04:31:47.056Z,7.16
2022-10-12T04:36:48.519Z,7.31
2022-10-12T04:41:49.892Z,7.24
2022-10-12T04:46:51.266Z,7.30
2022-10-12T04:51:52.689Z,7.16
2022-10-12T04:56:54.161Z,7.06
2022-10-12T05:01:55.666Z,7.07
2022-10-12T05:06:57.094Z,6.99
2022-10-12T05:11:58.477Z,6.90
2022-10-12T05:16:59.863Z,6.88
2022-10-12T05:22:01.618Z,6.65
2022-10-12T05:27:03.072Z,6.76
2022-10-12T05:32:04.718Z,6.75
2022-10-12T05:37:06.129Z,6.75
2022-10-12T05:42:07.573Z,6.72
2022-10-12T05:47:09.012Z,6.70
2022-10-12T05:52:10.553Z,6.61
2022-10-12T05:57:14.646Z,6.64
2022-10-12T06:02:17.865Z,6.78
2022-10-12T06:07:19.387Z,6.81
2022-10-12T06:12:20.802Z,6.73
2022-10-12T06:17:22.218Z,6.76
2022-10-12T06:22:23.601Z,6.82
2022-10-12T06:27:25.267Z,6.95
2022-10-12T06:32:26.661Z,6.81
2022-10-12T06:37:48.502Z,6.91
2022-10-12T06:42:54.932Z,7.16
2022-10-12T06:48:00.102Z,7.29
2022-10-12T06:53:01.547Z,7.40
2022-10-12T06:58:02.990Z,7.26
2022-10-12T07:03:04.555Z,7.60
2022-10-12T07:08:05.967Z,7.56
2022-10-12T07:13:07.394Z,7.56
2022-10-12T07:18:08.799Z,7.74
2022-10-12T07:23:10.195Z,8.01
2022-10-12T07:28:11.726Z,7.96
2022-10-12T07:33:13.164Z,8.09
2022-10-12T07:38:14.544Z,8.46
2022-10-12T07:43:16.613Z,8.52
2022-10-12T07:48:18.202Z,8.65
2022-10-12T07:53:19.602Z,8.94
2022-10-12T07:58:21.131Z,9.22
2022-10-12T08:03:22.620Z,9.37
2022-10-12T08:08:24.102Z,9.49
2022-10-12T08:13:25.583Z,9.56
2022-10-12T08:18:27.008Z,9.62
2022-10-12T08:23:29.302Z,9.55
2022-10-12T08:28:31.051Z,9.87
2022-10-12T08:33:33.134Z,10.40
2022-10-12T08:38:38.657Z,10.58
2022-10-12T08:43:51.898Z,10.52
2022-10-12T08:49:01.659Z,10.63
2022-10-12T08:54:07.414Z,10.82
2022-10-12T08:59:17.785Z,10.70
2022-10-12T09:04:34.165Z,10.63
2022-10-12T09:09:50.500Z,10.72
2022-10-12T09:14:56.748Z,11.09
2022-10-12T09:20:30.724Z,11.08
2022-10-12T09:25:32.145Z,11.22
2022-10-12T09:30:38.764Z,11.28
2022-10-12T09:35:41.896Z,11.28
2022-10-12T09:40:45.065Z,11.40
2022-10-12T09:45:46.639Z,11.46
2022-10-12T09:50:56.094Z,11.45
2022-10-12T09:56:07.766Z,11.49
2022-10-12T10:01:28.582Z,11.77
2022-10-12T10:06:30.057Z,11.77
2022-10-12T10:11:31.605Z,11.81
2022-10-12T10:16:33.159Z,12.11
2022-10-12T10:21:37.654Z,12.26
2022-10-12T10:27:02.489Z,12.38
2022-10-12T10:32:16.255Z,12.70
2022-10-12T10:37:22.790Z,12.88
2022-10-12T10:42:31.491Z,12.93
2022-10-12T10:47:41.715Z,13.12
2022-10-12T10:52:43.754Z,13.19
2022-10-12T10:58:03.306Z,13.40
2022-10-12T11:03:12.918Z,13.73
2022-10-12T11:08:29.854Z,13.76
2022-10-12T11:13:37.804Z,13.75
2022-10-12T11:18:45.593Z,13.78
2022-10-12T11:23:51.847Z,14.08
2022-10-12T11:28:56.795Z,14.13
2022-10-12T11:34:03.234Z,14.13
2022-10-12T11:39:42.666Z,14.30
2022-10-12T11:44:46.197Z,14.42
2022-10-12T11:49:59.742Z,14.66
2022-10-12T11:55:30.598Z,14.61
2022-10-12T12:00:48.208Z,14.79
2022-10-12T12:05:49.756Z,14.86
2022-10-12T12:11:02.046Z,14.72
2022-10-12T12:16:12.273Z,14.96
2022-10-12T12:21:13.733Z,15.13
2022-10-12T12:26:17.798Z,15.23
2022-10-12T12:31:21.938Z,15.07
2022-10-12T12:36:35.666Z,14.99
2022-10-12T12:42:01.653Z,15.01
2022-10-12T12:47:08.483Z,15.11
2022-10-12T12:52:24.673Z,15.46
2022-10-12T12:57:47.513Z,15.50
2022-10-12T13:03:07.914Z,15.48
2022-10-12T13:08:46.992Z,15.51
2022-10-12T13:14:05.910Z,15.65
2022-10-12T13:19:13.011Z,15.59
2022-10-12T13:24:16.231Z,15.75
2022-10-12T13:29:43.397Z,15.84
2022-10-12T13:34:47.329Z,15.87
2022-10-12T13:39:49.956Z,15.63
2022-10-12T13:44:51.467Z,15.62
2022-10-12T13:49:53.361Z,15.71
2022-10-12T13:54:55.677Z,15.89
2022-10-12T14:00:03.026Z,15.87
2022-10-12T14:05:15.939Z,16.02
2022-10-12T14:10:26.203Z,16.13
2022-10-12T14:15:33.822Z,16.28
2022-10-12T14:20:38.866Z,16.50
2022-10-12T14:26:00.686Z,16.33
2022-10-12T14:31:02.799Z,16.31
2022-10-12T14:36:29.967Z,16.26
2022-10-12T14:41:48.364Z,16.11
2022-10-12T14:47:05.979Z,16.19
2022-10-12T14:52:17.519Z,16.01
2022-10-12T14:57:19.425Z,16.16
2022-10-12T15:02:25.461Z,16.03
2022-10-12T15:07:30.734Z,16.16
2022-10-12T15:12:32.482Z,15.94
2022-10-12T15:17:33.907Z,15.81
2022-10-12T15:22:35.493Z,15.92
2022-10-12T15:27:36.969Z,15.88
2022-10-12T15:32:38.484Z,15.66
2022-10-12T15:37:39.903Z,15.49
2022-10-12T15:42:42.509Z,15.37
2022-10-12T15:47:48.216Z,15.46
2022-10-12T15:52:49.832Z,15.17
2022-10-12T15:57:51.639Z,15.07
2022-10-12T16:02:54.835Z,15.07
2022-10-12T16:07:56.435Z,14.98
2022-10-12T16:12:58.171Z,14.86
2022-10-12T16:18:01.098Z,14.78
2022-10-12T16:23:04.191Z,14.86
2022-10-12T16:28:05.722Z,14.76
2022-10-12T16:33:07.403Z,14.76
2022-10-12T16:38:09.718Z,14.53
2022-10-12T16:43:11.536Z,14.40
2022-10-12T16:48:13.094Z,14.22
2022-10-12T16:53:14.495Z,14.09
2022-10-12T16:58:15.994Z,13.98
2022-10-12T17:03:17.482Z,13.84
2022-10-12T17:08:18.896Z,13.76
2022-10-12T17:13:20.281Z,13.72
2022-10-12T17:18:21.730Z,13.60
2022-10-12T17:23:23.232Z,13.57
2022-10-12T17:28:24.854Z,13.69
2022-10-12T17:33:26.242Z,13.45
2022-10-12T17:38:27.699Z,13.25
2022-10-12T17:43:29.374Z,13.20
2022-10-12T17:48:31.059Z,13.17
2022-10-12T17:53:32.459Z,13.19
2022-10-12T17:58:36.198Z,13.10
2022-10-12T18:03:39.612Z,13.08
2022-10-12T18:08:41.563Z,12.98
2022-10-12T18:14:01.662Z,12.85
2022-10-12T18:19:05.271Z,12.95
2022-10-12T18:24:16.071Z,12.93
2022-10-12T18:29:18.026Z,12.55
2022-10-12T18:34:19.454Z,12.61
2022-10-12T18:39:20.845Z,12.45
2022-10-12T18:44:22.544Z,12.56
2022-10-12T18:49:24.131Z,12.42
2022-10-12T18:54:25.564Z,12.25
2022-10-12T18:59:27.075Z,12.20
2022-10-12T19:04:28.443Z,12.17
2022-10-12T19:09:29.918Z,12.00
2022-10-12T19:14:31.585Z,11.97
2022-10-12T19:19:33.022Z,12.06
2022-10-12T19:24:34.623Z,11.97
2022-10-12T19:29:36.266Z,11.84
2022-10-12T19:34:37.707Z,11.64
2022-10-12T19:39:44.429Z,11.61
2022-10-12T19:44:45.887Z,11.58
2022-10-12T19:49:47.272Z,11.48
2022-10-12T19:54:48.779Z,11.78
2022-10-12T19:59:50.210Z,11.63
2022-10-12T20:04:54.125Z,11.44
2022-10-12T20:09:55.561Z,11.50
2022-10-12T20:14:57.121Z,11.54
2022-10-12T20:19:58.510Z,11.16
2022-10-12T20:25:00.010Z,11.19
2022-10-12T20:30:01.484Z,11.19
2022-10-12T20:35:03.602Z,11.31
2022-10-12T20:40:05.615Z,11.22
2022-10-12T20:45:07.586Z,11.08
2022-10-12T20:50:10.043Z,11.24
2022-10-12T20:55:11.497Z,11.15
2022-10-12T21:00:13.535Z,11.17
2022-10-12T21:05:15.074Z,11.08
2022-10-12T21:10:16.683Z,11.07
2022-10-12T21:15:18.091Z,11.08
2022-10-12T21:20:19.507Z,11.05
2022-10-12T21:25:20.909Z,11.15
2022-10-12T21:30:22.323Z,11.07
2022-10-12T21:35:23.769Z,11.08
2022-10-12T21:40:25.269Z,11.20
2022-10-12T21:45:26.750Z,11.31
2022-10-12T21:50:28.313Z,11.17
2022-10-12T21:55:32.534Z,11.14
2022-10-12T22:00:34.040Z,11.11
2022-10-12T22:05:39.670Z,10.96
2022-10-12T22:10:41.130Z,10.87
2022-10-12T22:15:42.574Z,10.87
2022-10-12T22:20:45.961Z,10.97
2022-10-12T22:25:47.438Z,10.94
2022-10-12T22:30:48.918Z,11.06
2022-10-12T22:35:59.151Z,11.13
2022-10-12T22:41:03.351Z,11.20
2022-10-12T22:46:04.985Z,11.17
2022-10-12T22:51:07.290Z,11.04
2022-10-12T22:56:14.469Z,10.98
2022-10-12T23:01:17.203Z,11.11
2022-10-12T23:06:18.951Z,11.21
2022-10-12T23:11:22.837Z,11.13
2022-10-12T23:16:29.876Z,11.02
2022-10-12T23:21:32.579Z,11.19
2022-10-12T23:26:35.061Z,11.19
2022-10-12T23:31:36.506Z,11.21
2022-10-12T23:36:37.912Z,11.05
2022-10-12T23:41:39.309Z,11.18
2022-10-12T23:46:40.721Z,11.14
2022-10-12T23:51:42.380Z,11.11
2022-10-12T23:56:43.756Z,11.24
